sensor_id;sensor_type;location;lat;lon;timestamp;pressure;altitude;pressure_sealevel;temperature;humidity
70411;BME280;57832;46.038;11.398;2023-04-19T00:00:18;96936.97;;;15.08;100.00
70411;BME280;57832;46.038;11.398;2023-04-19T00:02:45;96941.03;;;14.80;100.00
70411;BME280;57832;46.038;11.398;2023-04-19T00:05:13;96940.53;;;14.57;100.00
70411;BME280;57832;46.038;11.398;2023-04-19T00:07:39;96941.81;;;14.80;100.00
70411;BME280;57832;46.038;11.398;2023-04-19T00:10:05;96939.38;;;14.99;100.00
70411;BME280;57832;46.038;11.398;2023-04-19T00:12:31;96942.38;;;14.67;100.00
70411;BME280;57832;46.038;11.398;2023-04-19T00:14:56;96938.69;;;14.58;100.00
70411;BME280;57832;46.038;11.398;2023-04-19T00:17:22;96938.97;;;14.41;100.00
70411;BME280;57832;46.038;11.398;2023-04-19T00:19:47;96940.06;;;14.29;100.00
70411;BME280;57832;46.038;11.398;2023-04-19T00:22:13;96932.66;;;14.36;100.00
70411;BME280;57832;46.038;11.398;2023-04-19T00:24:39;96932.56;;;14.88;100.00
70411;BME280;57832;46.038;11.398;2023-04-19T00:27:04;96926.31;;;14.43;100.00
70411;BME280;57832;46.038;11.398;2023-04-19T00:29:30;96927.94;;;13.87;100.00
70411;BME280;57832;46.038;11.398;2023-04-19T00:31:56;96923.19;;;14.20;100.00
70411;BME280;57832;46.038;11.398;2023-04-19T00:34:21;96925.03;;;14.14;100.00
70411;BME280;57832;46.038;11.398;2023-04-19T00:36:47;96918.41;;;14.37;100.00
70411;BME280;57832;46.038;11.398;2023-04-19T00:39:12;96917.94;;;13.89;100.00
70411;BME280;57832;46.038;11.398;2023-04-19T00:41:38;96909.72;;;14.11;100.00
70411;BME280;57832;46.038;11.398;2023-04-19T00:44:03;96909.44;;;14.28;100.00
70411;BME280;57832;46.038;11.398;2023-04-19T00:46:29;96899.84;;;14.84;100.00
70411;BME280;57832;46.038;11.398;2023-04-19T00:48:54;96895.59;;;14.88;100.00
70411;BME280;57832;46.038;11.398;2023-04-19T00:51:20;96898.00;;;14.79;100.00
70411;BME280;57832;46.038;11.398;2023-04-19T00:53:46;96905.00;;;13.87;100.00
70411;BME280;57832;46.038;11.398;2023-04-19T00:56:12;96901.31;;;14.14;100.00
70411;BME280;57832;46.038;11.398;2023-04-19T00:58:39;96905.53;;;14.10;100.00
70411;BME280;57832;46.038;11.398;2023-04-19T01:01:05;96903.66;;;13.59;100.00
70411;BME280;57832;46.038;11.398;2023-04-19T01:03:31;96904.19;;;13.77;100.00
70411;BME280;57832;46.038;11.398;2023-04-19T01:05:56;96897.28;;;14.43;100.00
70411;BME280;57832;46.038;11.398;2023-04-19T01:08:22;96890.41;;;14.52;100.00
70411;BME280;57832;46.038;11.398;2023-04-19T01:10:48;96896.53;;;14.06;100.00
70411;BME280;57832;46.038;11.398;2023-04-19T01:13:14;96905.25;;;14.07;100.00
70411;BME280;57832;46.038;11.398;2023-04-19T01:15:39;96895.78;;;13.80;100.00
70411;BME280;57832;46.038;11.398;2023-04-19T01:18:05;96899.44;;;13.99;100.00
70411;BME280;57832;46.038;11.398;2023-04-19T01:20:30;96896.81;;;13.68;100.00
70411;BME280;57832;46.038;11.398;2023-04-19T01:22:56;96902.09;;;13.84;100.00
70411;BME280;57832;46.038;11.398;2023-04-19T01:25:21;96893.13;;;14.11;100.00
70411;BME280;57832;46.038;11.398;2023-04-19T01:27:47;96893.34;;;14.30;100.00
70411;BME280;57832;46.038;11.398;2023-04-19T01:30:12;96892.88;;;13.97;100.00
70411;BME280;57832;46.038;11.398;2023-04-19T01:32:38;96897.06;;;13.98;100.00
70411;BME280;57832;46.038;11.398;2023-04-19T01:35:04;96896.56;;;13.80;100.00
70411;BME280;57832;46.038;11.398;2023-04-19T01:37:33;96891.78;;;13.36;100.00
70411;BME280;57832;46.038;11.398;2023-04-19T01:39:58;96885.75;;;14.02;100.00
70411;BME280;57832;46.038;11.398;2023-04-19T01:42:24;96891.75;;;14.34;100.00
70411;BME280;57832;46.038;11.398;2023-04-19T01:44:50;96881.47;;;14.37;100.00
70411;BME280;57832;46.038;11.398;2023-04-19T01:47:16;96884.69;;;13.98;100.00
70411;BME280;57832;46.038;11.398;2023-04-19T01:49:41;96887.31;;;14.24;100.00
70411;BME280;57832;46.038;11.398;2023-04-19T01:52:07;96885.22;;;14.11;100.00
70411;BME280;57832;46.038;11.398;2023-04-19T01:54:32;96884.16;;;14.01;100.00
70411;BME280;57832;46.038;11.398;2023-04-19T01:56:58;96878.56;;;14.34;100.00
70411;BME280;57832;46.038;11.398;2023-04-19T01:59:23;96877.22;;;14.42;100.00
70411;BME280;57832;46.038;11.398;2023-04-19T02:01:49;96876.25;;;13.55;100.00
70411;BME280;57832;46.038;11.398;2023-04-19T02:04:14;96879.94;;;13.44;100.00
70411;BME280;57832;46.038;11.398;2023-04-19T02:06:39;96883.66;;;13.84;100.00
70411;BME280;57832;46.038;11.398;2023-04-19T02:09:05;96879.97;;;13.80;100.00
70411;BME280;57832;46.038;11.398;2023-04-19T02:11:30;96877.59;;;13.73;100.00
70411;BME280;57832;46.038;11.398;2023-04-19T02:13:56;96869.41;;;13.64;100.00
70411;BME280;57832;46.038;11.398;2023-04-19T02:16:21;96871.00;;;13.60;100.00
70411;BME280;57832;46.038;11.398;2023-04-19T02:18:47;96879.16;;;13.53;100.00
70411;BME280;57832;46.038;11.398;2023-04-19T02:21:13;96872.31;;;13.73;100.00
70411;BME280;57832;46.038;11.398;2023-04-19T02:23:39;96874.13;;;13.47;100.00
70411;BME280;57832;46.038;11.398;2023-04-19T02:26:04;96868.09;;;13.46;100.00
70411;BME280;57832;46.038;11.398;2023-04-19T02:28:30;96870.19;;;13.70;100.00
70411;BME280;57832;46.038;11.398;2023-04-19T02:30:56;96870.44;;;14.10;100.00
70411;BME280;57832;46.038;11.398;2023-04-19T02:33:22;96870.66;;;13.31;100.00
70411;BME280;57832;46.038;11.398;2023-04-19T02:35:48;96869.41;;;13.59;100.00
70411;BME280;57832;46.038;11.398;2023-04-19T02:38:13;96867.28;;;13.82;100.00
70411;BME280;57832;46.038;11.398;2023-04-19T02:40:39;96869.38;;;13.54;100.00
70411;BME280;57832;46.038;11.398;2023-04-19T02:43:04;96872.06;;;13.85;100.00
70411;BME280;57832;46.038;11.398;2023-04-19T02:45:30;96866.78;;;13.80;100.00
70411;BME280;57832;46.038;11.398;2023-04-19T02:47:55;96869.13;;;13.61;100.00
70411;BME280;57832;46.038;11.398;2023-04-19T02:50:21;96865.47;;;13.46;100.00
70411;BME280;57832;46.038;11.398;2023-04-19T02:52:47;96868.75;;;13.05;100.00
70411;BME280;57832;46.038;11.398;2023-04-19T02:55:12;96868.66;;;12.75;100.00
70411;BME280;57832;46.038;11.398;2023-04-19T02:57:37;96864.47;;;12.79;100.00
70411;BME280;57832;46.038;11.398;2023-04-19T03:00:03;96868.03;;;12.52;100.00
70411;BME280;57832;46.038;11.398;2023-04-19T03:02:30;96864.56;;;12.41;100.00
70411;BME280;57832;46.038;11.398;2023-04-19T03:04:55;96863.75;;;12.41;100.00
70411;BME280;57832;46.038;11.398;2023-04-19T03:07:21;96864.78;;;12.29;100.00
70411;BME280;57832;46.038;11.398;2023-04-19T03:09:47;96861.28;;;12.18;100.00
70411;BME280;57832;46.038;11.398;2023-04-19T03:12:12;96859.06;;;12.43;100.00
70411;BME280;57832;46.038;11.398;2023-04-19T03:14:38;96852.28;;;12.57;100.00
70411;BME280;57832;46.038;11.398;2023-04-19T03:17:03;96857.09;;;11.85;100.00
70411;BME280;57832;46.038;11.398;2023-04-19T03:19:29;96855.47;;;12.16;100.00
70411;BME280;57832;46.038;11.398;2023-04-19T03:21:54;96851.22;;;12.05;100.00
70411;BME280;57832;46.038;11.398;2023-04-19T03:24:27;96856.81;;;11.81;100.00
70411;BME280;57832;46.038;11.398;2023-04-19T03:26:56;96843.38;;;11.78;100.00
70411;BME280;57832;46.038;11.398;2023-04-19T03:29:22;96851.84;;;11.90;100.00
70411;BME280;57832;46.038;11.398;2023-04-19T03:31:47;96852.78;;;12.06;100.00
70411;BME280;57832;46.038;11.398;2023-04-19T03:34:13;96847.75;;;11.99;100.00
70411;BME280;57832;46.038;11.398;2023-04-19T03:36:39;96856.28;;;11.84;100.00
70411;BME280;57832;46.038;11.398;2023-04-19T03:39:05;96849.00;;;11.27;100.00
70411;BME280;57832;46.038;11.398;2023-04-19T03:41:31;96844.19;;;11.18;100.00
70411;BME280;57832;46.038;11.398;2023-04-19T03:43:57;96847.63;;;11.51;100.00
70411;BME280;57832;46.038;11.398;2023-04-19T03:46:22;96847.91;;;11.55;100.00
70411;BME280;57832;46.038;11.398;2023-04-19T03:48:48;96850.63;;;11.33;100.00
70411;BME280;57832;46.038;11.398;2023-04-19T03:51:14;96835.81;;;11.54;100.00
70411;BME280;57832;46.038;11.398;2023-04-19T03:53:41;96849.59;;;11.66;100.00
70411;BME280;57832;46.038;11.398;2023-04-19T03:56:06;96853.75;;;11.30;100.00
70411;BME280;57832;46.038;11.398;2023-04-19T03:58:32;96853.00;;;11.34;100.00
70411;BME280;57832;46.038;11.398;2023-04-19T04:00:58;96859.25;;;10.79;100.00
70411;BME280;57832;46.038;11.398;2023-04-19T04:03:24;96859.81;;;11.30;100.00
70411;BME280;57832;46.038;11.398;2023-04-19T04:05:49;96860.28;;;11.54;100.00
70411;BME280;57832;46.038;11.398;2023-04-19T04:08:15;96862.22;;;11.37;100.00
70411;BME280;57832;46.038;11.398;2023-04-19T04:10:40;96857.41;;;10.79;100.00
70411;BME280;57832;46.038;11.398;2023-04-19T04:13:06;96856.56;;;10.96;100.00
70411;BME280;57832;46.038;11.398;2023-04-19T04:15:31;96860.47;;;10.71;100.00
70411;BME280;57832;46.038;11.398;2023-04-19T04:17:57;96864.88;;;10.65;100.00
70411;BME280;57832;46.038;11.398;2023-04-19T04:20:23;96865.16;;;10.47;100.00
70411;BME280;57832;46.038;11.398;2023-04-19T04:22:48;96865.84;;;10.59;100.00
70411;BME280;57832;46.038;11.398;2023-04-19T04:25:14;96871.81;;;10.54;100.00
70411;BME280;57832;46.038;11.398;2023-04-19T04:27:42;96870.16;;;10.48;100.00
70411;BME280;57832;46.038;11.398;2023-04-19T04:30:11;96870.72;;;10.73;100.00
70411;BME280;57832;46.038;11.398;2023-04-19T04:32:37;96868.78;;;10.85;100.00
70411;BME280;57832;46.038;11.398;2023-04-19T04:35:05;96864.19;;;10.97;100.00
70411;BME280;57832;46.038;11.398;2023-04-19T04:37:31;96865.34;;;10.84;100.00
70411;BME280;57832;46.038;11.398;2023-04-19T04:40:00;96868.56;;;11.41;100.00
70411;BME280;57832;46.038;11.398;2023-04-19T04:42:26;96869.63;;;10.91;100.00
70411;BME280;57832;46.038;11.398;2023-04-19T04:44:52;96870.50;;;11.24;100.00
70411;BME280;57832;46.038;11.398;2023-04-19T04:47:22;96867.88;;;11.24;100.00
70411;BME280;57832;46.038;11.398;2023-04-19T04:49:48;96875.31;;;11.64;100.00
70411;BME280;57832;46.038;11.398;2023-04-19T04:52:13;96873.94;;;11.89;100.00
70411;BME280;57832;46.038;11.398;2023-04-19T04:54:39;96872.06;;;12.22;100.00
70411;BME280;57832;46.038;11.398;2023-04-19T04:57:04;96872.94;;;12.33;100.00
70411;BME280;57832;46.038;11.398;2023-04-19T04:59:30;96878.31;;;12.11;100.00
70411;BME280;57832;46.038;11.398;2023-04-19T05:01:55;96869.66;;;12.10;100.00
70411;BME280;57832;46.038;11.398;2023-04-19T05:04:21;96866.56;;;11.86;100.00
70411;BME280;57832;46.038;11.398;2023-04-19T05:06:46;96871.19;;;12.06;100.00
70411;BME280;57832;46.038;11.398;2023-04-19T05:09:12;96872.72;;;12.40;100.00
70411;BME280;57832;46.038;11.398;2023-04-19T05:11:37;96871.06;;;12.81;100.00
70411;BME280;57832;46.038;11.398;2023-04-19T05:14:03;96862.91;;;12.83;100.00
70411;BME280;57832;46.038;11.398;2023-04-19T05:16:28;96867.16;;;12.99;100.00
70411;BME280;57832;46.038;11.398;2023-04-19T05:18:54;96865.22;;;12.74;100.00
70411;BME280;57832;46.038;11.398;2023-04-19T05:21:20;96862.50;;;12.48;100.00
70411;BME280;57832;46.038;11.398;2023-04-19T05:23:46;96861.41;;;12.39;100.00
70411;BME280;57832;46.038;11.398;2023-04-19T05:26:11;96860.84;;;12.32;100.00
70411;BME280;57832;46.038;11.398;2023-04-19T05:28:40;96862.81;;;12.57;100.00
70411;BME280;57832;46.038;11.398;2023-04-19T05:31:07;96865.28;;;12.90;100.00
70411;BME280;57832;46.038;11.398;2023-04-19T05:33:32;96865.78;;;12.81;100.00
70411;BME280;57832;46.038;11.398;2023-04-19T05:35:58;96859.31;;;13.15;100.00
70411;BME280;57832;46.038;11.398;2023-04-19T05:38:23;96865.63;;;13.03;100.00
70411;BME280;57832;46.038;11.398;2023-04-19T05:40:49;96866.19;;;13.21;100.00
70411;BME280;57832;46.038;11.398;2023-04-19T05:43:14;96858.56;;;13.35;100.00
70411;BME280;57832;46.038;11.398;2023-04-19T05:45:40;96859.94;;;13.84;100.00
70411;BME280;57832;46.038;11.398;2023-04-19T05:48:06;96857.56;;;13.67;100.00
70411;BME280;57832;46.038;11.398;2023-04-19T05:50:31;96860.69;;;14.00;100.00
70411;BME280;57832;46.038;11.398;2023-04-19T05:52:56;96866.75;;;14.11;100.00
70411;BME280;57832;46.038;11.398;2023-04-19T05:55:22;96861.47;;;13.90;100.00
70411;BME280;57832;46.038;11.398;2023-04-19T05:57:49;96857.97;;;14.41;100.00
70411;BME280;57832;46.038;11.398;2023-04-19T06:00:14;96855.44;;;14.86;100.00
70411;BME280;57832;46.038;11.398;2023-04-19T06:02:40;96856.56;;;14.80;100.00
70411;BME280;57832;46.038;11.398;2023-04-19T06:05:06;96856.09;;;15.17;100.00
70411;BME280;57832;46.038;11.398;2023-04-19T06:07:32;96852.94;;;15.90;100.00
70411;BME280;57832;46.038;11.398;2023-04-19T06:09:57;96848.44;;;16.44;100.00
70411;BME280;57832;46.038;11.398;2023-04-19T06:12:23;96837.59;;;15.92;100.00
70411;BME280;57832;46.038;11.398;2023-04-19T06:14:48;96846.41;;;15.77;100.00
70411;BME280;57832;46.038;11.398;2023-04-19T06:17:14;96845.31;;;20.10;100.00
70411;BME280;57832;46.038;11.398;2023-04-19T06:19:41;96840.38;;;19.95;100.00
70411;BME280;57832;46.038;11.398;2023-04-19T06:22:07;96837.00;;;18.57;100.00
70411;BME280;57832;46.038;11.398;2023-04-19T06:24:32;96837.53;;;18.45;100.00
70411;BME280;57832;46.038;11.398;2023-04-19T06:26:58;96830.56;;;20.04;100.00
70411;BME280;57832;46.038;11.398;2023-04-19T06:29:23;96835.50;;;17.95;100.00
70411;BME280;57832;46.038;11.398;2023-04-19T06:31:50;96827.78;;;19.18;100.00
70411;BME280;57832;46.038;11.398;2023-04-19T06:34:15;96827.97;;;24.47;83.48
70411;BME280;57832;46.038;11.398;2023-04-19T06:36:41;96822.28;;;19.60;100.00
70411;BME280;57832;46.038;11.398;2023-04-19T06:39:07;96828.44;;;18.87;100.00
70411;BME280;57832;46.038;11.398;2023-04-19T06:41:32;96829.66;;;18.53;100.00
70411;BME280;57832;46.038;11.398;2023-04-19T06:43:58;96826.25;;;22.45;100.00
70411;BME280;57832;46.038;11.398;2023-04-19T06:46:23;96821.19;;;25.72;64.69
70411;BME280;57832;46.038;11.398;2023-04-19T06:48:49;96812.97;;;28.97;41.90
70411;BME280;57832;46.038;11.398;2023-04-19T06:51:14;96815.78;;;24.37;49.33
70411;BME280;57832;46.038;11.398;2023-04-19T06:53:40;96820.09;;;25.44;57.87
70411;BME280;57832;46.038;11.398;2023-04-19T06:56:06;96812.63;;;25.37;56.20
70411;BME280;57832;46.038;11.398;2023-04-19T06:58:31;96817.00;;;27.61;45.29
70411;BME280;57832;46.038;11.398;2023-04-19T07:00:58;96809.53;;;24.33;64.66
70411;BME280;57832;46.038;11.398;2023-04-19T07:03:24;96811.66;;;25.58;59.56
70411;BME280;57832;46.038;11.398;2023-04-19T07:05:50;96811.78;;;26.93;45.89
70411;BME280;57832;46.038;11.398;2023-04-19T07:08:17;96813.22;;;24.90;53.66
70411;BME280;57832;46.038;11.398;2023-04-19T07:10:42;96815.81;;;28.78;42.78
70411;BME280;57832;46.038;11.398;2023-04-19T07:13:10;96809.41;;;28.63;40.19
70411;BME280;57832;46.038;11.398;2023-04-19T07:15:36;96813.84;;;23.12;70.94
70411;BME280;57832;46.038;11.398;2023-04-19T07:18:01;96807.16;;;20.24;99.25
70411;BME280;57832;46.038;11.398;2023-04-19T07:20:27;96816.19;;;20.14;97.50
70411;BME280;57832;46.038;11.398;2023-04-19T07:22:53;96812.19;;;19.94;95.05
70411;BME280;57832;46.038;11.398;2023-04-19T07:25:19;96809.03;;;18.87;100.00
70411;BME280;57832;46.038;11.398;2023-04-19T07:27:44;96805.38;;;22.38;86.30
70411;BME280;57832;46.038;11.398;2023-04-19T07:30:10;96798.16;;;24.73;53.84
70411;BME280;57832;46.038;11.398;2023-04-19T07:32:35;96806.06;;;21.70;93.62
70411;BME280;57832;46.038;11.398;2023-04-19T07:35:01;96798.16;;;23.65;82.54
70411;BME280;57832;46.038;11.398;2023-04-19T07:37:26;96785.59;;;30.08;40.53
70411;BME280;57832;46.038;11.398;2023-04-19T07:39:52;96780.25;;;31.95;34.38
70411;BME280;57832;46.038;11.398;2023-04-19T07:42:18;96789.59;;;24.96;47.86
70411;BME280;57832;46.038;11.398;2023-04-19T07:44:44;96779.41;;;24.11;56.81
70411;BME280;57832;46.038;11.398;2023-04-19T07:47:09;96778.16;;;24.70;49.99
70411;BME280;57832;46.038;11.398;2023-04-19T07:49:35;96768.53;;;22.74;59.13
70411;BME280;57832;46.038;11.398;2023-04-19T07:52:01;96772.53;;;21.34;75.17
70411;BME280;57832;46.038;11.398;2023-04-19T07:54:26;96766.28;;;22.25;58.27
70411;BME280;57832;46.038;11.398;2023-04-19T07:56:52;96752.19;;;23.63;55.53
70411;BME280;57832;46.038;11.398;2023-04-19T07:59:17;96761.03;;;29.83;33.76
70411;BME280;57832;46.038;11.398;2023-04-19T08:01:43;96756.88;;;25.47;43.33
70411;BME280;57832;46.038;11.398;2023-04-19T08:04:08;96758.81;;;25.06;49.19
70411;BME280;57832;46.038;11.398;2023-04-19T08:06:36;96752.06;;;24.18;47.49
70411;BME280;57832;46.038;11.398;2023-04-19T08:09:02;96757.91;;;21.40;67.74
70411;BME280;57832;46.038;11.398;2023-04-19T08:11:28;96755.25;;;20.79;81.95
70411;BME280;57832;46.038;11.398;2023-04-19T08:13:53;96747.50;;;27.27;47.03
70411;BME280;57832;46.038;11.398;2023-04-19T08:16:19;96739.25;;;28.63;35.64
70411;BME280;57832;46.038;11.398;2023-04-19T08:18:45;96751.03;;;22.25;61.24
70411;BME280;57832;46.038;11.398;2023-04-19T08:21:12;96737.38;;;22.57;70.16
70411;BME280;57832;46.038;11.398;2023-04-19T08:23:38;96736.38;;;23.03;54.44
70411;BME280;57832;46.038;11.398;2023-04-19T08:26:03;96727.75;;;21.48;64.60
70411;BME280;57832;46.038;11.398;2023-04-19T08:28:30;96732.94;;;20.48;78.74
70411;BME280;57832;46.038;11.398;2023-04-19T08:30:57;96723.47;;;24.10;44.83
70411;BME280;57832;46.038;11.398;2023-04-19T08:33:23;96729.59;;;21.74;61.51
70411;BME280;57832;46.038;11.398;2023-04-19T08:35:48;96725.28;;;21.34;68.51
70411;BME280;57832;46.038;11.398;2023-04-19T08:38:14;96714.72;;;20.15;77.53
70411;BME280;57832;46.038;11.398;2023-04-19T08:40:49;96720.28;;;21.80;57.77
70411;BME280;57832;46.038;11.398;2023-04-19T08:43:16;96718.00;;;20.12;69.72
70411;BME280;57832;46.038;11.398;2023-04-19T08:45:45;96709.09;;;19.77;72.69
70411;BME280;57832;46.038;11.398;2023-04-19T08:48:11;96702.25;;;19.84;79.58
70411;BME280;57832;46.038;11.398;2023-04-19T08:50:40;96701.25;;;19.71;76.50
70411;BME280;57832;46.038;11.398;2023-04-19T08:53:09;96699.38;;;20.30;73.72
70411;BME280;57832;46.038;11.398;2023-04-19T08:55:40;96692.66;;;20.32;70.72
70411;BME280;57832;46.038;11.398;2023-04-19T08:58:06;96693.16;;;20.52;76.84
70411;BME280;57832;46.038;11.398;2023-04-19T09:00:32;96684.44;;;19.94;72.01
70411;BME280;57832;46.038;11.398;2023-04-19T09:02:58;96690.03;;;20.59;75.10
70411;BME280;57832;46.038;11.398;2023-04-19T09:05:24;96679.09;;;19.85;75.04
70411;BME280;57832;46.038;11.398;2023-04-19T09:07:50;96676.69;;;20.32;71.75
70411;BME280;57832;46.038;11.398;2023-04-19T09:10:19;96671.88;;;21.61;66.66
70411;BME280;57832;46.038;11.398;2023-04-19T09:13:02;96670.28;;;20.51;66.20
70411;BME280;57832;46.038;11.398;2023-04-19T09:15:36;96658.22;;;27.48;42.21
70411;BME280;57832;46.038;11.398;2023-04-19T09:18:04;96649.53;;;33.32;27.56
70411;BME280;57832;46.038;11.398;2023-04-19T09:20:49;96637.00;;;35.70;25.01
70411;BME280;57832;46.038;11.398;2023-04-19T09:23:17;96637.97;;;27.81;31.06
70411;BME280;57832;46.038;11.398;2023-04-19T09:25:54;96640.66;;;23.92;39.68
70411;BME280;57832;46.038;11.398;2023-04-19T09:28:22;96645.88;;;22.72;44.17
70411;BME280;57832;46.038;11.398;2023-04-19T09:30:47;96642.53;;;22.75;45.62
70411;BME280;57832;46.038;11.398;2023-04-19T09:33:13;96640.53;;;22.09;49.07
70411;BME280;57832;46.038;11.398;2023-04-19T09:35:47;96639.91;;;20.78;53.41
70411;BME280;57832;46.038;11.398;2023-04-19T09:38:14;96641.28;;;20.93;55.06
70411;BME280;57832;46.038;11.398;2023-04-19T09:40:41;96636.72;;;20.50;57.36
70411;BME280;57832;46.038;11.398;2023-04-19T09:43:06;96628.84;;;21.15;57.90
70411;BME280;57832;46.038;11.398;2023-04-19T09:45:42;96625.47;;;20.35;56.90
70411;BME280;57832;46.038;11.398;2023-04-19T09:48:08;96624.53;;;20.49;54.82
70411;BME280;57832;46.038;11.398;2023-04-19T09:50:35;96618.22;;;20.88;50.40
70411;BME280;57832;46.038;11.398;2023-04-19T09:53:02;96617.47;;;20.79;49.72
70411;BME280;57832;46.038;11.398;2023-04-19T09:55:28;96599.75;;;21.69;45.20
70411;BME280;57832;46.038;11.398;2023-04-19T09:57:54;96597.22;;;30.34;31.50
70411;BME280;57832;46.038;11.398;2023-04-19T10:00:21;96579.41;;;37.01;23.08
70411;BME280;57832;46.038;11.398;2023-04-19T10:02:50;96585.31;;;36.83;21.74
70411;BME280;57832;46.038;11.398;2023-04-19T10:05:20;96577.13;;;33.04;24.71
70411;BME280;57832;46.038;11.398;2023-04-19T10:07:49;96578.00;;;26.88;29.88
70411;BME280;57832;46.038;11.398;2023-04-19T10:10:17;96581.22;;;24.84;32.84
70411;BME280;57832;46.038;11.398;2023-04-19T10:12:47;96581.75;;;23.43;35.20
70411;BME280;57832;46.038;11.398;2023-04-19T10:15:14;96585.03;;;21.93;37.16
70411;BME280;57832;46.038;11.398;2023-04-19T10:17:40;96581.97;;;22.25;38.42
70411;BME280;57832;46.038;11.398;2023-04-19T10:20:09;96574.97;;;22.32;38.59
70411;BME280;57832;46.038;11.398;2023-04-19T10:22:37;96581.78;;;21.58;40.10
70411;BME280;57832;46.038;11.398;2023-04-19T10:25:07;96572.22;;;22.08;40.63
70411;BME280;57832;46.038;11.398;2023-04-19T10:27:33;96576.50;;;22.21;39.24
70411;BME280;57832;46.038;11.398;2023-04-19T10:30:03;96568.50;;;22.21;39.41
70411;BME280;57832;46.038;11.398;2023-04-19T10:32:43;96567.31;;;22.31;37.37
70411;BME280;57832;46.038;11.398;2023-04-19T10:35:16;96563.91;;;22.64;38.79
70411;BME280;57832;46.038;11.398;2023-04-19T10:38:01;96560.91;;;22.23;39.57
70411;BME280;57832;46.038;11.398;2023-04-19T10:43:27;96554.34;;;21.10;39.43
70411;BME280;57832;46.038;11.398;2023-04-19T10:45:57;96547.31;;;22.70;39.27
70411;BME280;57832;46.038;11.398;2023-04-19T10:51:16;96547.53;;;22.65;36.09
70411;BME280;57832;46.038;11.398;2023-04-19T10:53:52;96538.56;;;22.49;36.97
70411;BME280;57832;46.038;11.398;2023-04-19T11:01:39;96532.25;;;23.36;42.18
70411;BME280;57832;46.038;11.398;2023-04-19T11:11:58;96525.31;;;23.73;43.54
70411;BME280;57832;46.038;11.398;2023-04-19T11:14:25;96515.41;;;23.61;43.84
70411;BME280;57832;46.038;11.398;2023-04-19T11:16:51;96515.34;;;23.85;45.37
70411;BME280;57832;46.038;11.398;2023-04-19T11:19:17;96515.94;;;22.92;46.13
70411;BME280;57832;46.038;11.398;2023-04-19T11:21:47;96505.69;;;22.82;47.16
70411;BME280;57832;46.038;11.398;2023-04-19T11:24:13;96501.69;;;23.37;49.96
70411;BME280;57832;46.038;11.398;2023-04-19T11:26:44;96503.06;;;23.19;47.84
70411;BME280;57832;46.038;11.398;2023-04-19T11:29:11;96496.19;;;22.84;47.93
70411;BME280;57832;46.038;11.398;2023-04-19T11:31:36;96498.38;;;22.24;49.63
70411;BME280;57832;46.038;11.398;2023-04-19T11:34:02;96495.97;;;22.31;51.66
70411;BME280;57832;46.038;11.398;2023-04-19T11:36:28;96495.28;;;22.01;58.13
70411;BME280;57832;46.038;11.398;2023-04-19T11:38:56;96497.91;;;21.88;56.68
70411;BME280;57832;46.038;11.398;2023-04-19T11:41:21;96491.72;;;22.51;58.13
70411;BME280;57832;46.038;11.398;2023-04-19T11:43:47;96484.31;;;22.82;56.37
70411;BME280;57832;46.038;11.398;2023-04-19T11:46:13;96486.72;;;21.74;58.66
70411;BME280;57832;46.038;11.398;2023-04-19T11:48:49;96482.63;;;22.31;57.29
70411;BME280;57832;46.038;11.398;2023-04-19T11:51:16;96479.75;;;22.36;56.81
70411;BME280;57832;46.038;11.398;2023-04-19T11:53:41;96485.59;;;22.30;56.27
70411;BME280;57832;46.038;11.398;2023-04-19T11:56:08;96477.88;;;22.49;56.40
70411;BME280;57832;46.038;11.398;2023-04-19T11:58:42;96475.28;;;22.86;57.09
70411;BME280;57832;46.038;11.398;2023-04-19T12:01:13;96477.94;;;22.86;58.90
70411;BME280;57832;46.038;11.398;2023-04-19T12:06:13;96473.56;;;23.56;53.95
70411;BME280;57832;46.038;11.398;2023-04-19T12:08:44;96462.81;;;23.28;56.75
70411;BME280;57832;46.038;11.398;2023-04-19T12:11:12;96467.06;;;22.46;56.42
70411;BME280;57832;46.038;11.398;2023-04-19T12:13:38;96456.94;;;23.22;54.26
70411;BME280;57832;46.038;11.398;2023-04-19T12:16:05;96459.44;;;23.84;52.90
70411;BME280;57832;46.038;11.398;2023-04-19T12:18:49;96453.66;;;23.82;56.66
70411;BME280;57832;46.038;11.398;2023-04-19T12:21:25;96449.66;;;23.23;55.31
70411;BME280;57832;46.038;11.398;2023-04-19T12:23:59;96444.41;;;22.64;54.25
70411;BME280;57832;46.038;11.398;2023-04-19T12:26:28;96436.41;;;23.26;54.68
70411;BME280;57832;46.038;11.398;2023-04-19T12:28:55;96445.75;;;23.32;51.19
70411;BME280;57832;46.038;11.398;2023-04-19T12:31:21;96438.63;;;23.24;54.56
70411;BME280;57832;46.038;11.398;2023-04-19T12:33:47;96436.50;;;23.70;52.58
70411;BME280;57832;46.038;11.398;2023-04-19T12:36:13;96434.25;;;23.44;55.42
70411;BME280;57832;46.038;11.398;2023-04-19T12:38:39;96428.81;;;23.03;51.90
70411;BME280;57832;46.038;11.398;2023-04-19T12:41:05;96426.41;;;23.92;51.28
70411;BME280;57832;46.038;11.398;2023-04-19T12:43:31;96415.66;;;23.23;50.16
70411;BME280;57832;46.038;11.398;2023-04-19T12:45:57;96419.09;;;23.77;51.02
70411;BME280;57832;46.038;11.398;2023-04-19T12:48:23;96418.19;;;23.44;50.00
70411;BME280;57832;46.038;11.398;2023-04-19T12:50:48;96410.13;;;23.85;48.81
70411;BME280;57832;46.038;11.398;2023-04-19T12:53:14;96417.41;;;24.13;48.26
70411;BME280;57832;46.038;11.398;2023-04-19T12:55:39;96412.94;;;24.33;48.60
70411;BME280;57832;46.038;11.398;2023-04-19T12:58:05;96403.44;;;23.91;46.74
70411;BME280;57832;46.038;11.398;2023-04-19T13:00:31;96401.66;;;23.83;47.30
70411;BME280;57832;46.038;11.398;2023-04-19T13:02:56;96390.56;;;23.68;46.07